首页
METAR-TAF:

METAR-TAF

机场 :

Savannah/Hilton Head International Airport

薩凡納, 喬治亞, 美国

纬度: 32-07-08N, 经度: 081-12-08W, 海拔: 15米

当前天气观测

该预报发布于20分钟前的00:30 UTC
风速7节,风向西转西北
温度 6°C
湿度 87%
气压 1021 hPa
能見度: 12.9公里
多云层高于1000英尺
多云层高于1800英尺
阴天层高于2300英尺

METAR: KSAV 110030Z 29007KT 8SM BKN010 BKN018 OVC023 06/04 A3014 RMK AO2 T00560039

时间: 19:50 (00:50 UTC)

预报

该预报发布于1小时和19分钟前的23:31 UTC
预报有效从11日的 00点(UTC)到 11日的 24点(UTC)
风速5节,风向西转西北
能見度: 10公里
阴天层高于1500英尺
从 11日的 0600点(UTC)
风速5节,风向北转西北
能見度: 10公里
散云层高于800英尺
阴天层高于1200英尺
短暂存在
从 11日的 09点(UTC)到 11日的 12点(UTC)
散云层高于1500英尺
多云层高于6000英尺
从 11日的 1200点(UTC)
风速7节,风向西北
能見度: 10公里
天空无云

TAF: KSAV 102331Z 1100/1124 30005KT P6SM OVC015 FM110600 33005KT P6SM SCT008 OVC012 TEMPO 1109/1112 SCT015 BKN060 FM111200 32007KT P6SM SKC

超过4000个机场的气象观测和天气预报(METAR&TAF报告)。

可查询的气象台以黄色和红色小点在地图上表示。

将鼠标移到小点上方,可查看气象台名称。

然后点击查看天气观测和预报。

如需切换地图:点击带黑十字的绿色按钮放大地图;点击带横线的绿色按钮缩小地图;或者点击绿色箭头查看邻近地区的地图。


METAR-TAF: